QFA1253 YPAD-YMML
Flight info
| Callsign | QFA1253 |
|---|---|
| Flight time | N/A |
| Altitude | 41000 |
| Route | BENDO Y12 ARBEY |
| Aircraft | B748/H-SDE3FGHIM1M2RWXY/LB1 |
Departure
| Time | 2026-04-30 02:02 |
|---|---|
| Airport | Adelaide International Airport (YPAD) |
Arrival
| Time | N/A |
|---|---|
| Airport | Melbourne Airport (YMML) |
| Time | Latitude | Longitude | Altitude | Speed | Heading |
|---|---|---|---|---|---|
| 2026-04-30 01:08 | -34.94055 | 138.53722 | 34 ft | 0 kts | 320° |
| 2026-04-30 01:32 | -34.94056 | 138.53723 | 61 ft | 2 kts | 320° |
| 2026-04-30 01:32 | -34.94071 | 138.53738 | 32 ft | 3 kts | 320° |
| 2026-04-30 01:32 | -34.94085 | 138.53753 | 33 ft | 3 kts | 320° |
| 2026-04-30 01:33 | -34.94100 | 138.53768 | 31 ft | 3 kts | 320° |
| 2026-04-30 01:33 | -34.94115 | 138.53782 | 30 ft | 0 kts | 320° |
| 2026-04-30 01:39 | -34.94113 | 138.53779 | 32 ft | 1 kts | 310° |
| 2026-04-30 01:39 | -34.94112 | 138.53771 | 32 ft | 1 kts | 289° |
| 2026-04-30 01:39 | -34.94113 | 138.53764 | 32 ft | 1 kts | 267° |
| 2026-04-30 01:39 | -34.94119 | 138.53743 | 32 ft | 6 kts | 245° |
| 2026-04-30 01:40 | -34.94148 | 138.53688 | 32 ft | 11 kts | 232° |
| 2026-04-30 01:40 | -34.94205 | 138.53645 | 29 ft | 6 kts | 184° |
| 2026-04-30 01:40 | -34.94239 | 138.53660 | 28 ft | 6 kts | 161° |
| 2026-04-30 01:40 | -34.94281 | 138.53652 | 27 ft | 5 kts | 206° |
| 2026-04-30 01:41 | -34.94325 | 138.53603 | 27 ft | 10 kts | 231° |
| 2026-04-30 01:41 | -34.94369 | 138.53538 | 27 ft | 11 kts | 231° |
| 2026-04-30 01:41 | -34.94420 | 138.53461 | 31 ft | 12 kts | 229° |
| 2026-04-30 01:41 | -34.94491 | 138.53362 | 27 ft | 16 kts | 233° |
| 2026-04-30 01:42 | -34.94512 | 138.53251 | 29 ft | 11 kts | 275° |
| 2026-04-30 01:42 | -34.94481 | 138.53169 | 31 ft | 13 kts | 302° |
| 2026-04-30 01:42 | -34.94442 | 138.53060 | 32 ft | 11 kts | 275° |
| 2026-04-30 01:42 | -34.94465 | 138.52992 | 32 ft | 11 kts | 232° |
| 2026-04-30 01:43 | -34.94528 | 138.52925 | 33 ft | 12 kts | 217° |
| 2026-04-30 01:43 | -34.94593 | 138.52862 | 34 ft | 12 kts | 218° |
| 2026-04-30 01:43 | -34.94667 | 138.52791 | 31 ft | 17 kts | 217° |
| 2026-04-30 01:43 | -34.94750 | 138.52714 | 30 ft | 15 kts | 218° |
| 2026-04-30 01:44 | -34.94814 | 138.52654 | 30 ft | 12 kts | 218° |
| 2026-04-30 01:44 | -34.94883 | 138.52587 | 29 ft | 14 kts | 218° |
| 2026-04-30 01:44 | -34.94965 | 138.52510 | 28 ft | 15 kts | 217° |
| 2026-04-30 01:44 | -34.95064 | 138.52418 | 29 ft | 25 kts | 217° |
| 2026-04-30 01:45 | -34.95211 | 138.52281 | 29 ft | 31 kts | 217° |
| 2026-04-30 01:45 | -34.95409 | 138.52028 | 32 ft | 47 kts | 230° |
| 2026-04-30 01:45 | -34.95610 | 138.51731 | 29 ft | 39 kts | 230° |
| 2026-04-30 01:45 | -34.95754 | 138.51649 | 27 ft | 18 kts | 161° |
| 2026-04-30 01:46 | -34.95803 | 138.51759 | 29 ft | 15 kts | 81° |
| 2026-04-30 01:46 | -34.95583 | 138.52114 | 30 ft | 102 kts | 50° |
| 2026-04-30 01:46 | -34.95156 | 138.52733 | 30 ft | 53 kts | 51° |
| 2026-04-30 01:46 | -34.95004 | 138.52953 | 30 ft | 23 kts | 44° |
| 2026-04-30 01:47 | -34.94906 | 138.52987 | 29 ft | 14 kts | 7° |
| 2026-04-30 01:47 | -34.94839 | 138.53016 | 30 ft | 6 kts | 16° |
| 2026-04-30 01:47 | -34.94784 | 138.53036 | 31 ft | 11 kts | 17° |
| 2026-04-30 01:47 | -34.94779 | 138.53038 | 31 ft | 0 kts | 17° |
| 2026-04-30 01:48 | -34.94771 | 138.53041 | 31 ft | 6 kts | 17° |
| 2026-04-30 01:49 | -34.94683 | 138.53077 | 31 ft | 20 kts | 19° |
| 2026-04-30 01:49 | -34.94537 | 138.53143 | 31 ft | 21 kts | 18° |
| 2026-04-30 01:49 | -34.94465 | 138.53122 | 32 ft | 12 kts | 318° |
| 2026-04-30 01:49 | -34.94440 | 138.53041 | 32 ft | 11 kts | 264° |
| 2026-04-30 01:50 | -34.94511 | 138.52937 | 32 ft | 32 kts | 218° |
| 2026-04-30 01:50 | -34.94693 | 138.52768 | 30 ft | 32 kts | 218° |
| 2026-04-30 01:50 | -34.94831 | 138.52635 | 30 ft | 22 kts | 218° |
| 2026-04-30 01:50 | -34.94955 | 138.52520 | 28 ft | 23 kts | 218° |
| 2026-04-30 01:51 | -34.95083 | 138.52401 | 29 ft | 23 kts | 218° |
| 2026-04-30 01:51 | -34.95208 | 138.52279 | 29 ft | 23 kts | 218° |
| 2026-04-30 01:51 | -34.95322 | 138.52157 | 32 ft | 21 kts | 227° |
| 2026-04-30 01:51 | -34.95402 | 138.52034 | 32 ft | 17 kts | 228° |
| 2026-04-30 01:52 | -34.95463 | 138.51948 | 33 ft | 8 kts | 230° |
| 2026-04-30 01:52 | -34.95503 | 138.51890 | 32 ft | 10 kts | 230° |
| 2026-04-30 01:52 | -34.95554 | 138.51815 | 30 ft | 13 kts | 230° |
| 2026-04-30 01:52 | -34.95615 | 138.51725 | 29 ft | 14 kts | 231° |
| 2026-04-30 01:53 | -34.95685 | 138.51648 | 29 ft | 8 kts | 205° |
| 2026-04-30 01:53 | -34.95725 | 138.51640 | 28 ft | 0 kts | 177° |
| 2026-04-30 01:56 | -34.95727 | 138.51640 | 28 ft | 2 kts | 177° |
| 2026-04-30 01:57 | -34.95749 | 138.51645 | 27 ft | 4 kts | 163° |
| 2026-04-30 01:57 | -34.95753 | 138.51647 | 27 ft | 0 kts | 162° |
| 2026-04-30 02:00 | -34.95769 | 138.51658 | 27 ft | 6 kts | 150° |
| 2026-04-30 02:00 | -34.95811 | 138.51712 | 27 ft | 9 kts | 116° |
| 2026-04-30 02:01 | -34.95813 | 138.51757 | 29 ft | 3 kts | 83° |
| 2026-04-30 02:01 | -34.95810 | 138.51769 | 29 ft | 1 kts | 67° |
| 2026-04-30 02:01 | -34.95808 | 138.51771 | 29 ft | 0 kts | 63° |
| 2026-04-30 02:02 | -34.95712 | 138.51931 | 29 ft | 63 kts | 51° |
| 2026-04-30 02:02 | -34.95261 | 138.52585 | 27 ft | 136 kts | 50° |
| 2026-04-30 02:02 | -34.94571 | 138.53625 | 389 ft | 165 kts | 46° |
| 2026-04-30 02:02 | -34.93807 | 138.54757 | 978 ft | 181 kts | 44° |
| 2026-04-30 02:03 | -34.92955 | 138.55946 | 1350 ft | 204 kts | 45° |
| 2026-04-30 02:03 | -34.91948 | 138.57375 | 1207 ft | 229 kts | 48° |
| 2026-04-30 02:03 | -34.90903 | 138.58912 | 1172 ft | 237 kts | 48° |
| 2026-04-30 02:03 | -34.89860 | 138.60446 | 1350 ft | 241 kts | 46° |
| 2026-04-30 02:04 | -34.88840 | 138.62012 | 1956 ft | 242 kts | 53° |
| 2026-04-30 02:04 | -34.87811 | 138.63651 | 2532 ft | 243 kts | 34° |
| 2026-04-30 02:04 | -34.86339 | 138.64705 | 2862 ft | 253 kts | 22° |
| 2026-04-30 02:04 | -34.84738 | 138.65423 | 3142 ft | 244 kts | 5° |
| 2026-04-30 02:05 | -34.83045 | 138.65459 | 3498 ft | 243 kts | 355° |
| 2026-04-30 02:05 | -34.81329 | 138.65305 | 3840 ft | 259 kts | 353° |
| 2026-04-30 02:05 | -34.79533 | 138.64783 | 4343 ft | 277 kts | 334° |
| 2026-04-30 02:05 | -34.77991 | 138.63282 | 4892 ft | 295 kts | 309° |
| 2026-04-30 02:06 | -34.77029 | 138.60962 | 5024 ft | 327 kts | 288° |
| 2026-04-30 02:06 | -34.76723 | 138.58198 | 5014 ft | 336 kts | 269° |
| 2026-04-30 02:06 | -34.77155 | 138.55355 | 4997 ft | 347 kts | 253° |
| 2026-04-30 02:06 | -34.78264 | 138.52672 | 4999 ft | 373 kts | 241° |
| 2026-04-30 02:07 | -34.79697 | 138.50007 | 4991 ft | 376 kts | 238° |
| 2026-04-30 02:07 | -34.81171 | 138.47481 | 4991 ft | 353 kts | 236° |
| 2026-04-30 02:07 | -34.82589 | 138.45135 | 4806 ft | 334 kts | 236° |
| 2026-04-30 02:07 | -34.83899 | 138.43014 | 4524 ft | 302 kts | 236° |
| 2026-04-30 02:08 | -34.85244 | 138.41206 | 4251 ft | 278 kts | 224° |
| 2026-04-30 02:08 | -34.86715 | 138.39811 | 3971 ft | 261 kts | 219° |
| 2026-04-30 02:08 | -34.88209 | 138.38594 | 3709 ft | 258 kts | 210° |
| 2026-04-30 02:08 | -34.89852 | 138.37806 | 3492 ft | 245 kts | 201° |
| 2026-04-30 02:09 | -34.91439 | 138.37273 | 3317 ft | 229 kts | 198° |
| 2026-04-30 02:09 | -34.92991 | 138.37179 | 3055 ft | 223 kts | 169° |
| 2026-04-30 02:09 | -34.94447 | 138.37663 | 2948 ft | 210 kts | 164° |
| 2026-04-30 02:09 | -34.95843 | 138.38218 | 2979 ft | 217 kts | 163° |
| 2026-04-30 02:10 | -34.97293 | 138.38803 | 2990 ft | 221 kts | 163° |
| 2026-04-30 02:10 | -34.98749 | 138.39445 | 2965 ft | 224 kts | 152° |
| 2026-04-30 02:10 | -34.99826 | 138.40715 | 2938 ft | 220 kts | 115° |
| 2026-04-30 02:10 | -35.00365 | 138.42416 | 2820 ft | 209 kts | 103° |
| 2026-04-30 02:11 | -35.00559 | 138.44105 | 2557 ft | 195 kts | 79° |
| 2026-04-30 02:11 | -35.00239 | 138.45707 | 2100 ft | 203 kts | 61° |
| 2026-04-30 02:11 | -34.99457 | 138.46897 | 1702 ft | 165 kts | 34° |
| 2026-04-30 02:11 | -34.98609 | 138.47749 | 1197 ft | 156 kts | 36° |
| 2026-04-30 02:12 | -34.97807 | 138.48664 | 655 ft | 157 kts | 44° |
| 2026-04-30 02:12 | -34.97165 | 138.49692 | 414 ft | 146 kts | 52° |
| 2026-04-30 02:12 | -34.96567 | 138.50712 | 252 ft | 156 kts | 46° |
| 2026-04-30 02:12 | -34.95897 | 138.51674 | 28 ft | 147 kts | 44° |
| 2026-04-30 02:13 | -34.95262 | 138.52580 | 28 ft | 126 kts | 49° |
| 2026-04-30 02:13 | -34.94806 | 138.53243 | 31 ft | 81 kts | 49° |
| 2026-04-30 02:13 | -34.94520 | 138.53663 | 28 ft | 52 kts | 50° |
| 2026-04-30 02:13 | -34.94308 | 138.53979 | 33 ft | 44 kts | 49° |
| 2026-04-30 02:14 | -34.94118 | 138.54230 | 36 ft | 30 kts | 45° |
| 2026-04-30 02:14 | -34.94095 | 138.54253 | 36 ft | 24 kts | 34° |